Sign-in with your pilot id or email, or register

ICAO: OKBK Name / Country: Kuwait Internationalairport / Kuwait
Latitude: 29.2266 Longitude: 47.9689
Total Arrivals:
Strict Standards: Non-static method AirportData::getarrflights() should not be called statically, assuming $this from incompatible context in /var/www/customers/vh-7192/web/home/phpvms/core/templates/airport_info.tpl on line 18
0
Total Departures:
Strict Standards: Non-static method AirportData::getdeptflights() should not be called statically, assuming $this from incompatible context in /var/www/customers/vh-7192/web/home/phpvms/core/templates/airport_info.tpl on line 21
1
Latest Arrival: (-) Latest Departure: MTA5PM (OKBK-OMAA) Tibor Berces
Metar: OKBK 282100Z 24004KT CAVOK 30/04 Q1005 NOSIG
More info

Charts for OKBK


NOTAM


Warning: file_get_contents(http://api.vateud.net/notams/OKBK.json): failed to open stream: Redirection limit reached, aborting in /var/www/customers/vh-7192/web/home/phpvms/core/common/NOTAMSData.class.php on line 18

Warning: Invalid argument supplied for foreach() in /var/www/customers/vh-7192/web/home/phpvms/core/common/NOTAMSData.class.php on line 22

Kuwait Internationalairport